sensor_id;sensor_type;location;lat;lon;timestamp;P1;durP1;ratioP1;P2;durP2;ratioP2
17330;SDS011;8783;52.448;4.638;2023-10-09T00:00:16;1.98;;;1.40;;
17330;SDS011;8783;52.448;4.638;2023-10-09T00:03:00;1.55;;;1.15;;
17330;SDS011;8783;52.448;4.638;2023-10-09T00:05:26;2.40;;;1.40;;
17330;SDS011;8783;52.448;4.638;2023-10-09T00:08:07;1.48;;;1.10;;
17330;SDS011;8783;52.448;4.638;2023-10-09T00:10:34;1.90;;;1.45;;
17330;SDS011;8783;52.448;4.638;2023-10-09T00:13:18;2.10;;;1.50;;
17330;SDS011;8783;52.448;4.638;2023-10-09T00:15:45;2.58;;;1.50;;
17330;SDS011;8783;52.448;4.638;2023-10-09T00:18:17;1.77;;;1.48;;
17330;SDS011;8783;52.448;4.638;2023-10-09T00:20:48;2.70;;;1.67;;
17330;SDS011;8783;52.448;4.638;2023-10-09T00:23:19;2.10;;;1.40;;
17330;SDS011;8783;52.448;4.638;2023-10-09T00:25:49;2.08;;;1.30;;
17330;SDS011;8783;52.448;4.638;2023-10-09T00:28:31;1.73;;;1.52;;
17330;SDS011;8783;52.448;4.638;2023-10-09T00:30:59;1.88;;;1.48;;
17330;SDS011;8783;52.448;4.638;2023-10-09T00:33:29;3.40;;;2.00;;
17330;SDS011;8783;52.448;4.638;2023-10-09T00:35:55;2.85;;;1.80;;
17330;SDS011;8783;52.448;4.638;2023-10-09T00:38:20;3.15;;;1.52;;
17330;SDS011;8783;52.448;4.638;2023-10-09T00:40:49;2.45;;;1.65;;
17330;SDS011;8783;52.448;4.638;2023-10-09T00:43:28;2.42;;;1.60;;
17330;SDS011;8783;52.448;4.638;2023-10-09T00:45:55;2.13;;;1.27;;
17330;SDS011;8783;52.448;4.638;2023-10-09T00:48:43;3.22;;;1.67;;
17330;SDS011;8783;52.448;4.638;2023-10-09T00:51:12;2.10;;;1.60;;
17330;SDS011;8783;52.448;4.638;2023-10-09T00:53:43;2.78;;;1.67;;
17330;SDS011;8783;52.448;4.638;2023-10-09T00:56:16;2.33;;;1.67;;
17330;SDS011;8783;52.448;4.638;2023-10-09T00:59:07;2.40;;;1.80;;
17330;SDS011;8783;52.448;4.638;2023-10-09T01:01:45;2.83;;;1.40;;
17330;SDS011;8783;52.448;4.638;2023-10-09T01:04:21;2.58;;;1.55;;
17330;SDS011;8783;52.448;4.638;2023-10-09T01:06:50;2.60;;;1.52;;
17330;SDS011;8783;52.448;4.638;2023-10-09T01:09:33;2.00;;;1.50;;
17330;SDS011;8783;52.448;4.638;2023-10-09T01:12:03;2.53;;;1.70;;
17330;SDS011;8783;52.448;4.638;2023-10-09T01:14:30;2.45;;;1.50;;
17330;SDS011;8783;52.448;4.638;2023-10-09T01:17:00;2.75;;;1.83;;
17330;SDS011;8783;52.448;4.638;2023-10-09T01:19:27;2.88;;;1.80;;
17330;SDS011;8783;52.448;4.638;2023-10-09T01:21:53;2.45;;;1.60;;
17330;SDS011;8783;52.448;4.638;2023-10-09T01:24:19;2.47;;;1.85;;
17330;SDS011;8783;52.448;4.638;2023-10-09T01:26:46;4.03;;;1.67;;
17330;SDS011;8783;52.448;4.638;2023-10-09T01:29:16;2.28;;;1.60;;
17330;SDS011;8783;52.448;4.638;2023-10-09T01:31:53;2.38;;;1.75;;
17330;SDS011;8783;52.448;4.638;2023-10-09T01:34:29;2.47;;;1.80;;
17330;SDS011;8783;52.448;4.638;2023-10-09T01:37:02;2.85;;;1.88;;
17330;SDS011;8783;52.448;4.638;2023-10-09T01:39:30;2.60;;;1.70;;
17330;SDS011;8783;52.448;4.638;2023-10-09T01:41:56;3.65;;;1.60;;
17330;SDS011;8783;52.448;4.638;2023-10-09T01:44:26;3.08;;;1.77;;
17330;SDS011;8783;52.448;4.638;2023-10-09T01:46:55;3.38;;;2.03;;
17330;SDS011;8783;52.448;4.638;2023-10-09T01:49:23;2.65;;;1.80;;
17330;SDS011;8783;52.448;4.638;2023-10-09T01:51:58;3.03;;;1.83;;
17330;SDS011;8783;52.448;4.638;2023-10-09T01:54:26;2.78;;;1.73;;
17330;SDS011;8783;52.448;4.638;2023-10-09T01:57:05;2.80;;;1.70;;
17330;SDS011;8783;52.448;4.638;2023-10-09T01:59:41;5.13;;;2.40;;
17330;SDS011;8783;52.448;4.638;2023-10-09T02:02:12;3.22;;;1.90;;
17330;SDS011;8783;52.448;4.638;2023-10-09T02:07:40;3.63;;;1.90;;
17330;SDS011;8783;52.448;4.638;2023-10-09T02:10:13;2.38;;;1.67;;
17330;SDS011;8783;52.448;4.638;2023-10-09T02:13:04;4.13;;;2.17;;
17330;SDS011;8783;52.448;4.638;2023-10-09T02:15:37;3.22;;;1.83;;
17330;SDS011;8783;52.448;4.638;2023-10-09T02:18:10;2.97;;;1.85;;
17330;SDS011;8783;52.448;4.638;2023-10-09T02:20:49;3.00;;;1.60;;
17330;SDS011;8783;52.448;4.638;2023-10-09T02:23:35;2.95;;;1.70;;
17330;SDS011;8783;52.448;4.638;2023-10-09T02:26:17;2.30;;;1.77;;
17330;SDS011;8783;52.448;4.638;2023-10-09T02:28:43;2.95;;;1.80;;
17330;SDS011;8783;52.448;4.638;2023-10-09T02:31:10;3.45;;;1.83;;
17330;SDS011;8783;52.448;4.638;2023-10-09T02:33:37;3.03;;;1.95;;
17330;SDS011;8783;52.448;4.638;2023-10-09T02:36:04;2.95;;;2.00;;
17330;SDS011;8783;52.448;4.638;2023-10-09T02:38:33;4.90;;;2.20;;
17330;SDS011;8783;52.448;4.638;2023-10-09T02:41:00;3.33;;;1.85;;
17330;SDS011;8783;52.448;4.638;2023-10-09T02:43:32;3.05;;;2.10;;
17330;SDS011;8783;52.448;4.638;2023-10-09T02:46:05;3.75;;;1.90;;
17330;SDS011;8783;52.448;4.638;2023-10-09T02:48:45;2.47;;;1.65;;
17330;SDS011;8783;52.448;4.638;2023-10-09T02:51:21;4.50;;;2.28;;
17330;SDS011;8783;52.448;4.638;2023-10-09T02:53:57;3.00;;;1.88;;
17330;SDS011;8783;52.448;4.638;2023-10-09T02:56:47;3.97;;;2.10;;
17330;SDS011;8783;52.448;4.638;2023-10-09T02:59:30;3.70;;;2.00;;
17330;SDS011;8783;52.448;4.638;2023-10-09T03:01:56;3.08;;;2.00;;
17330;SDS011;8783;52.448;4.638;2023-10-09T03:04:25;3.10;;;2.10;;
17330;SDS011;8783;52.448;4.638;2023-10-09T03:06:56;3.17;;;1.85;;
17330;SDS011;8783;52.448;4.638;2023-10-09T03:09:22;3.58;;;2.10;;
17330;SDS011;8783;52.448;4.638;2023-10-09T03:11:53;3.80;;;2.35;;
17330;SDS011;8783;52.448;4.638;2023-10-09T03:14:32;4.30;;;2.22;;
17330;SDS011;8783;52.448;4.638;2023-10-09T03:17:00;3.53;;;2.15;;
17330;SDS011;8783;52.448;4.638;2023-10-09T03:19:27;3.08;;;2.13;;
17330;SDS011;8783;52.448;4.638;2023-10-09T03:21:54;3.50;;;2.08;;
17330;SDS011;8783;52.448;4.638;2023-10-09T03:24:24;3.80;;;2.10;;
17330;SDS011;8783;52.448;4.638;2023-10-09T03:26:52;2.55;;;1.83;;
17330;SDS011;8783;52.448;4.638;2023-10-09T03:29:20;3.33;;;1.83;;
17330;SDS011;8783;52.448;4.638;2023-10-09T03:31:47;3.75;;;2.10;;
17330;SDS011;8783;52.448;4.638;2023-10-09T03:34:15;3.90;;;2.13;;
17330;SDS011;8783;52.448;4.638;2023-10-09T03:36:41;3.97;;;2.05;;
17330;SDS011;8783;52.448;4.638;2023-10-09T03:39:08;4.35;;;2.30;;
17330;SDS011;8783;52.448;4.638;2023-10-09T03:41:52;3.90;;;2.22;;
17330;SDS011;8783;52.448;4.638;2023-10-09T03:44:19;5.30;;;2.33;;
17330;SDS011;8783;52.448;4.638;2023-10-09T03:46:45;3.22;;;2.10;;
17330;SDS011;8783;52.448;4.638;2023-10-09T03:49:11;3.33;;;2.00;;
17330;SDS011;8783;52.448;4.638;2023-10-09T03:51:38;4.18;;;2.22;;
17330;SDS011;8783;52.448;4.638;2023-10-09T03:54:04;4.88;;;2.38;;
17330;SDS011;8783;52.448;4.638;2023-10-09T03:56:33;4.35;;;2.80;;
17330;SDS011;8783;52.448;4.638;2023-10-09T03:58:59;3.03;;;1.95;;
17330;SDS011;8783;52.448;4.638;2023-10-09T04:01:26;2.92;;;1.75;;
17330;SDS011;8783;52.448;4.638;2023-10-09T04:03:56;4.45;;;2.30;;
17330;SDS011;8783;52.448;4.638;2023-10-09T04:06:26;3.50;;;2.28;;
17330;SDS011;8783;52.448;4.638;2023-10-09T04:08:59;3.63;;;2.30;;
17330;SDS011;8783;52.448;4.638;2023-10-09T04:11:25;3.78;;;2.08;;
17330;SDS011;8783;52.448;4.638;2023-10-09T04:13:51;3.63;;;2.22;;
17330;SDS011;8783;52.448;4.638;2023-10-09T04:16:18;3.83;;;2.13;;
17330;SDS011;8783;52.448;4.638;2023-10-09T04:19:00;4.60;;;2.45;;
17330;SDS011;8783;52.448;4.638;2023-10-09T04:21:33;3.20;;;2.22;;
17330;SDS011;8783;52.448;4.638;2023-10-09T04:24:08;3.22;;;2.15;;
17330;SDS011;8783;52.448;4.638;2023-10-09T04:26:36;3.28;;;2.15;;
17330;SDS011;8783;52.448;4.638;2023-10-09T04:29:03;3.95;;;2.40;;
17330;SDS011;8783;52.448;4.638;2023-10-09T04:31:28;3.38;;;2.20;;
17330;SDS011;8783;52.448;4.638;2023-10-09T04:34:02;2.83;;;2.00;;
17330;SDS011;8783;52.448;4.638;2023-10-09T04:36:50;4.55;;;2.40;;
17330;SDS011;8783;52.448;4.638;2023-10-09T04:39:25;3.58;;;2.30;;
17330;SDS011;8783;52.448;4.638;2023-10-09T04:41:54;3.70;;;2.33;;
17330;SDS011;8783;52.448;4.638;2023-10-09T04:44:39;4.13;;;2.30;;
17330;SDS011;8783;52.448;4.638;2023-10-09T04:47:24;4.60;;;2.50;;
17330;SDS011;8783;52.448;4.638;2023-10-09T04:50:00;4.32;;;2.40;;
17330;SDS011;8783;52.448;4.638;2023-10-09T04:52:40;4.30;;;2.45;;
17330;SDS011;8783;52.448;4.638;2023-10-09T04:55:06;3.08;;;2.17;;
17330;SDS011;8783;52.448;4.638;2023-10-09T04:57:35;5.78;;;2.92;;
17330;SDS011;8783;52.448;4.638;2023-10-09T05:00:14;4.78;;;2.38;;
17330;SDS011;8783;52.448;4.638;2023-10-09T05:03:00;4.38;;;2.60;;
17330;SDS011;8783;52.448;4.638;2023-10-09T05:05:35;3.92;;;2.70;;
17330;SDS011;8783;52.448;4.638;2023-10-09T05:08:09;4.05;;;2.22;;
17330;SDS011;8783;52.448;4.638;2023-10-09T05:10:55;6.22;;;2.30;;
17330;SDS011;8783;52.448;4.638;2023-10-09T05:16:10;3.70;;;2.58;;
17330;SDS011;8783;52.448;4.638;2023-10-09T05:18:52;4.07;;;2.45;;
17330;SDS011;8783;52.448;4.638;2023-10-09T05:21:37;3.55;;;2.55;;
17330;SDS011;8783;52.448;4.638;2023-10-09T05:24:08;3.38;;;2.20;;
17330;SDS011;8783;52.448;4.638;2023-10-09T05:26:40;3.47;;;2.38;;
17330;SDS011;8783;52.448;4.638;2023-10-09T05:29:16;3.40;;;2.22;;
17330;SDS011;8783;52.448;4.638;2023-10-09T05:31:45;3.53;;;2.30;;
17330;SDS011;8783;52.448;4.638;2023-10-09T05:34:20;3.40;;;2.40;;
17330;SDS011;8783;52.448;4.638;2023-10-09T05:36:46;6.22;;;2.60;;
17330;SDS011;8783;52.448;4.638;2023-10-09T05:39:13;4.10;;;2.45;;
17330;SDS011;8783;52.448;4.638;2023-10-09T05:42:05;5.28;;;2.90;;
17330;SDS011;8783;52.448;4.638;2023-10-09T05:44:43;3.53;;;2.30;;
17330;SDS011;8783;52.448;4.638;2023-10-09T05:47:41;3.63;;;2.40;;
17330;SDS011;8783;52.448;4.638;2023-10-09T05:50:25;3.70;;;2.42;;
17330;SDS011;8783;52.448;4.638;2023-10-09T05:52:55;4.97;;;2.60;;
17330;SDS011;8783;52.448;4.638;2023-10-09T05:55:30;5.25;;;2.80;;
17330;SDS011;8783;52.448;4.638;2023-10-09T05:58:15;3.97;;;2.13;;
17330;SDS011;8783;52.448;4.638;2023-10-09T06:00:59;4.22;;;2.28;;
17330;SDS011;8783;52.448;4.638;2023-10-09T06:03:30;4.63;;;2.75;;
17330;SDS011;8783;52.448;4.638;2023-10-09T06:06:11;5.53;;;2.67;;
17330;SDS011;8783;52.448;4.638;2023-10-09T06:08:43;4.63;;;2.85;;
17330;SDS011;8783;52.448;4.638;2023-10-09T06:11:09;4.22;;;2.60;;
17330;SDS011;8783;52.448;4.638;2023-10-09T06:13:55;5.57;;;2.63;;
17330;SDS011;8783;52.448;4.638;2023-10-09T06:16:28;2.95;;;2.17;;
17330;SDS011;8783;52.448;4.638;2023-10-09T06:19:25;4.60;;;2.30;;
17330;SDS011;8783;52.448;4.638;2023-10-09T06:21:55;4.50;;;2.60;;
17330;SDS011;8783;52.448;4.638;2023-10-09T06:24:42;4.70;;;2.67;;
17330;SDS011;8783;52.448;4.638;2023-10-09T06:27:11;5.43;;;2.70;;
17330;SDS011;8783;52.448;4.638;2023-10-09T06:29:40;4.40;;;2.65;;
17330;SDS011;8783;52.448;4.638;2023-10-09T06:32:11;4.05;;;2.50;;
17330;SDS011;8783;52.448;4.638;2023-10-09T06:34:46;4.90;;;2.78;;
17330;SDS011;8783;52.448;4.638;2023-10-09T06:37:17;5.32;;;2.40;;
17330;SDS011;8783;52.448;4.638;2023-10-09T06:39:49;3.97;;;2.42;;
17330;SDS011;8783;52.448;4.638;2023-10-09T06:42:16;3.42;;;2.42;;
17330;SDS011;8783;52.448;4.638;2023-10-09T06:45:11;4.97;;;2.70;;
17330;SDS011;8783;52.448;4.638;2023-10-09T06:47:40;4.40;;;2.67;;
17330;SDS011;8783;52.448;4.638;2023-10-09T06:52:46;3.90;;;2.25;;
17330;SDS011;8783;52.448;4.638;2023-10-09T06:55:36;3.20;;;2.13;;
17330;SDS011;8783;52.448;4.638;2023-10-09T06:58:15;4.03;;;2.47;;
17330;SDS011;8783;52.448;4.638;2023-10-09T07:00:52;3.63;;;2.35;;
17330;SDS011;8783;52.448;4.638;2023-10-09T07:03:24;4.03;;;2.45;;
17330;SDS011;8783;52.448;4.638;2023-10-09T07:06:10;4.05;;;2.40;;
17330;SDS011;8783;52.448;4.638;2023-10-09T07:08:55;4.15;;;2.60;;
17330;SDS011;8783;52.448;4.638;2023-10-09T07:11:33;4.90;;;2.60;;
17330;SDS011;8783;52.448;4.638;2023-10-09T07:14:07;4.40;;;2.60;;
17330;SDS011;8783;52.448;4.638;2023-10-09T07:16:54;4.20;;;2.50;;
17330;SDS011;8783;52.448;4.638;2023-10-09T07:19:26;5.07;;;2.70;;
17330;SDS011;8783;52.448;4.638;2023-10-09T07:22:04;4.43;;;2.60;;
17330;SDS011;8783;52.448;4.638;2023-10-09T07:24:41;5.32;;;2.97;;
17330;SDS011;8783;52.448;4.638;2023-10-09T07:27:14;3.70;;;2.40;;
17330;SDS011;8783;52.448;4.638;2023-10-09T07:29:42;4.95;;;2.78;;
17330;SDS011;8783;52.448;4.638;2023-10-09T07:32:14;5.05;;;2.60;;
17330;SDS011;8783;52.448;4.638;2023-10-09T07:34:46;3.13;;;2.38;;
17330;SDS011;8783;52.448;4.638;2023-10-09T07:37:25;4.60;;;2.47;;
17330;SDS011;8783;52.448;4.638;2023-10-09T07:40:01;4.70;;;2.80;;
17330;SDS011;8783;52.448;4.638;2023-10-09T07:42:32;5.68;;;2.83;;
17330;SDS011;8783;52.448;4.638;2023-10-09T07:45:07;3.40;;;2.28;;
17330;SDS011;8783;52.448;4.638;2023-10-09T07:47:48;4.32;;;2.72;;
17330;SDS011;8783;52.448;4.638;2023-10-09T07:50:37;3.80;;;2.58;;
17330;SDS011;8783;52.448;4.638;2023-10-09T07:53:09;4.95;;;2.80;;
17330;SDS011;8783;52.448;4.638;2023-10-09T07:55:45;3.78;;;2.70;;
17330;SDS011;8783;52.448;4.638;2023-10-09T07:58:23;4.70;;;2.70;;
17330;SDS011;8783;52.448;4.638;2023-10-09T08:00:54;3.80;;;2.60;;
17330;SDS011;8783;52.448;4.638;2023-10-09T08:03:42;4.65;;;3.08;;
17330;SDS011;8783;52.448;4.638;2023-10-09T08:06:11;3.80;;;2.47;;
17330;SDS011;8783;52.448;4.638;2023-10-09T08:08:58;4.25;;;2.70;;
17330;SDS011;8783;52.448;4.638;2023-10-09T08:11:39;4.50;;;2.88;;
17330;SDS011;8783;52.448;4.638;2023-10-09T08:14:08;4.25;;;2.63;;
17330;SDS011;8783;52.448;4.638;2023-10-09T08:16:47;5.47;;;2.88;;
17330;SDS011;8783;52.448;4.638;2023-10-09T08:19:13;4.78;;;2.80;;
17330;SDS011;8783;52.448;4.638;2023-10-09T08:21:57;4.53;;;2.80;;
17330;SDS011;8783;52.448;4.638;2023-10-09T08:25:02;4.57;;;2.90;;
17330;SDS011;8783;52.448;4.638;2023-10-09T08:27:29;4.72;;;2.80;;
17330;SDS011;8783;52.448;4.638;2023-10-09T08:29:58;5.13;;;2.67;;
17330;SDS011;8783;52.448;4.638;2023-10-09T08:32:43;5.40;;;2.95;;
17330;SDS011;8783;52.448;4.638;2023-10-09T08:35:25;4.78;;;2.63;;
17330;SDS011;8783;52.448;4.638;2023-10-09T08:37:57;5.93;;;2.50;;
17330;SDS011;8783;52.448;4.638;2023-10-09T08:40:40;4.32;;;2.20;;
17330;SDS011;8783;52.448;4.638;2023-10-09T08:43:11;4.75;;;2.83;;
17330;SDS011;8783;52.448;4.638;2023-10-09T08:45:45;3.90;;;2.72;;
17330;SDS011;8783;52.448;4.638;2023-10-09T08:48:26;4.47;;;2.70;;
17330;SDS011;8783;52.448;4.638;2023-10-09T08:50:53;5.28;;;2.80;;
17330;SDS011;8783;52.448;4.638;2023-10-09T08:53:20;5.50;;;2.95;;
17330;SDS011;8783;52.448;4.638;2023-10-09T08:55:46;4.15;;;2.45;;
17330;SDS011;8783;52.448;4.638;2023-10-09T08:58:15;4.00;;;2.47;;
17330;SDS011;8783;52.448;4.638;2023-10-09T09:00:51;4.07;;;2.70;;
17330;SDS011;8783;52.448;4.638;2023-10-09T09:03:20;4.63;;;2.88;;
17330;SDS011;8783;52.448;4.638;2023-10-09T09:05:58;4.00;;;2.65;;
17330;SDS011;8783;52.448;4.638;2023-10-09T09:08:28;4.90;;;3.00;;
17330;SDS011;8783;52.448;4.638;2023-10-09T09:11:05;4.63;;;2.90;;
17330;SDS011;8783;52.448;4.638;2023-10-09T09:13:40;4.78;;;2.75;;
17330;SDS011;8783;52.448;4.638;2023-10-09T09:16:27;4.68;;;2.85;;
17330;SDS011;8783;52.448;4.638;2023-10-09T09:19:02;5.50;;;3.17;;
17330;SDS011;8783;52.448;4.638;2023-10-09T09:21:36;4.57;;;2.50;;
17330;SDS011;8783;52.448;4.638;2023-10-09T09:24:10;5.22;;;2.70;;
17330;SDS011;8783;52.448;4.638;2023-10-09T09:26:49;5.78;;;2.75;;
17330;SDS011;8783;52.448;4.638;2023-10-09T09:29:24;4.88;;;2.80;;
17330;SDS011;8783;52.448;4.638;2023-10-09T09:32:03;4.78;;;2.47;;
17330;SDS011;8783;52.448;4.638;2023-10-09T09:34:43;4.55;;;2.75;;
17330;SDS011;8783;52.448;4.638;2023-10-09T09:37:51;5.75;;;2.83;;
17330;SDS011;8783;52.448;4.638;2023-10-09T09:40:20;4.22;;;2.60;;
17330;SDS011;8783;52.448;4.638;2023-10-09T09:42:58;3.50;;;2.40;;
17330;SDS011;8783;52.448;4.638;2023-10-09T09:45:30;4.22;;;2.45;;
17330;SDS011;8783;52.448;4.638;2023-10-09T09:48:02;4.63;;;2.63;;
17330;SDS011;8783;52.448;4.638;2023-10-09T09:50:32;5.05;;;2.78;;
17330;SDS011;8783;52.448;4.638;2023-10-09T09:52:58;6.07;;;2.97;;
17330;SDS011;8783;52.448;4.638;2023-10-09T09:55:34;4.28;;;2.80;;
17330;SDS011;8783;52.448;4.638;2023-10-09T09:58:06;5.78;;;3.00;;
17330;SDS011;8783;52.448;4.638;2023-10-09T10:00:43;5.13;;;2.78;;
17330;SDS011;8783;52.448;4.638;2023-10-09T10:03:19;6.80;;;3.08;;
17330;SDS011;8783;52.448;4.638;2023-10-09T10:05:45;4.35;;;2.63;;
17330;SDS011;8783;52.448;4.638;2023-10-09T10:08:20;6.15;;;2.85;;
17330;SDS011;8783;52.448;4.638;2023-10-09T10:10:55;5.38;;;3.00;;
17330;SDS011;8783;52.448;4.638;2023-10-09T10:21:32;5.35;;;3.00;;
17330;SDS011;8783;52.448;4.638;2023-10-09T10:27:30;5.40;;;2.83;;
17330;SDS011;8783;52.448;4.638;2023-10-09T10:35:16;5.38;;;3.10;;
17330;SDS011;8783;52.448;4.638;2023-10-09T10:37:45;4.47;;;2.88;;
17330;SDS011;8783;52.448;4.638;2023-10-09T10:40:26;4.07;;;2.58;;
17330;SDS011;8783;52.448;4.638;2023-10-09T10:43:06;4.50;;;2.90;;
17330;SDS011;8783;52.448;4.638;2023-10-09T10:45:39;6.18;;;3.00;;
17330;SDS011;8783;52.448;4.638;2023-10-09T10:48:11;4.68;;;2.85;;
17330;SDS011;8783;52.448;4.638;2023-10-09T10:50:56;6.35;;;2.97;;
17330;SDS011;8783;52.448;4.638;2023-10-09T10:53:23;5.35;;;2.95;;
17330;SDS011;8783;52.448;4.638;2023-10-09T10:58:51;5.97;;;3.10;;
17330;SDS011;8783;52.448;4.638;2023-10-09T11:01:30;5.35;;;2.90;;
17330;SDS011;8783;52.448;4.638;2023-10-09T11:04:33;3.88;;;2.63;;
17330;SDS011;8783;52.448;4.638;2023-10-09T11:06:59;5.25;;;2.97;;
17330;SDS011;8783;52.448;4.638;2023-10-09T11:12:46;5.40;;;3.10;;
17330;SDS011;8783;52.448;4.638;2023-10-09T11:15:29;5.93;;;3.55;;
17330;SDS011;8783;52.448;4.638;2023-10-09T11:18:15;4.18;;;2.90;;
17330;SDS011;8783;52.448;4.638;2023-10-09T11:20:53;5.20;;;3.08;;
17330;SDS011;8783;52.448;4.638;2023-10-09T11:23:23;5.28;;;2.92;;
17330;SDS011;8783;52.448;4.638;2023-10-09T11:25:58;6.07;;;3.15;;
17330;SDS011;8783;52.448;4.638;2023-10-09T11:28:43;5.03;;;3.00;;
17330;SDS011;8783;52.448;4.638;2023-10-09T11:31:23;4.82;;;3.00;;
17330;SDS011;8783;52.448;4.638;2023-10-09T11:33:52;5.25;;;3.15;;
17330;SDS011;8783;52.448;4.638;2023-10-09T11:36:19;5.60;;;3.40;;
17330;SDS011;8783;52.448;4.638;2023-10-09T11:39:01;5.97;;;3.10;;
17330;SDS011;8783;52.448;4.638;2023-10-09T11:41:43;7.35;;;3.38;;
17330;SDS011;8783;52.448;4.638;2023-10-09T11:44:09;6.25;;;2.97;;
17330;SDS011;8783;52.448;4.638;2023-10-09T11:46:57;5.10;;;3.35;;
17330;SDS011;8783;52.448;4.638;2023-10-09T11:49:23;6.13;;;3.25;;
17330;SDS011;8783;52.448;4.638;2023-10-09T11:52:08;4.72;;;2.67;;
17330;SDS011;8783;52.448;4.638;2023-10-09T11:54:37;5.97;;;3.33;;
17330;SDS011;8783;52.448;4.638;2023-10-09T11:57:03;7.13;;;3.50;;
17330;SDS011;8783;52.448;4.638;2023-10-09T11:59:29;4.28;;;2.80;;
17330;SDS011;8783;52.448;4.638;2023-10-09T12:02:07;5.85;;;3.30;;
17330;SDS011;8783;52.448;4.638;2023-10-09T12:04:39;5.35;;;2.83;;
17330;SDS011;8783;52.448;4.638;2023-10-09T12:07:08;4.82;;;3.10;;
17330;SDS011;8783;52.448;4.638;2023-10-09T12:09:38;6.30;;;3.03;;
17330;SDS011;8783;52.448;4.638;2023-10-09T12:12:05;4.85;;;2.92;;
17330;SDS011;8783;52.448;4.638;2023-10-09T12:14:35;5.10;;;3.28;;
17330;SDS011;8783;52.448;4.638;2023-10-09T12:17:03;6.50;;;3.17;;
17330;SDS011;8783;52.448;4.638;2023-10-09T12:19:32;4.18;;;3.13;;
17330;SDS011;8783;52.448;4.638;2023-10-09T12:21:59;5.13;;;3.10;;
17330;SDS011;8783;52.448;4.638;2023-10-09T12:24:26;5.22;;;3.28;;
17330;SDS011;8783;52.448;4.638;2023-10-09T12:26:54;4.90;;;2.97;;
17330;SDS011;8783;52.448;4.638;2023-10-09T12:29:20;6.68;;;3.60;;
17330;SDS011;8783;52.448;4.638;2023-10-09T12:31:45;5.82;;;3.33;;
17330;SDS011;8783;52.448;4.638;2023-10-09T12:34:12;6.07;;;3.50;;
17330;SDS011;8783;52.448;4.638;2023-10-09T12:36:45;5.78;;;3.10;;
17330;SDS011;8783;52.448;4.638;2023-10-09T12:39:10;5.30;;;3.00;;
17330;SDS011;8783;52.448;4.638;2023-10-09T12:41:43;3.45;;;2.85;;
17330;SDS011;8783;52.448;4.638;2023-10-09T12:44:09;7.90;;;3.35;;
17330;SDS011;8783;52.448;4.638;2023-10-09T12:46:44;4.68;;;3.45;;
17330;SDS011;8783;52.448;4.638;2023-10-09T12:49:19;5.13;;;3.40;;
17330;SDS011;8783;52.448;4.638;2023-10-09T12:51:55;6.18;;;3.30;;
17330;SDS011;8783;52.448;4.638;2023-10-09T12:54:22;5.43;;;3.00;;
17330;SDS011;8783;52.448;4.638;2023-10-09T12:56:52;7.57;;;3.60;;
17330;SDS011;8783;52.448;4.638;2023-10-09T12:59:18;6.25;;;3.05;;
17330;SDS011;8783;52.448;4.638;2023-10-09T13:01:45;6.50;;;3.22;;
17330;SDS011;8783;52.448;4.638;2023-10-09T13:04:14;5.20;;;2.97;;
17330;SDS011;8783;52.448;4.638;2023-10-09T13:06:44;5.70;;;2.97;;
17330;SDS011;8783;52.448;4.638;2023-10-09T13:09:17;5.05;;;3.50;;
17330;SDS011;8783;52.448;4.638;2023-10-09T13:12:03;5.72;;;3.22;;
17330;SDS011;8783;52.448;4.638;2023-10-09T13:14:29;6.25;;;3.25;;
17330;SDS011;8783;52.448;4.638;2023-10-09T13:16:59;6.75;;;3.42;;
17330;SDS011;8783;52.448;4.638;2023-10-09T13:19:25;5.75;;;3.15;;
17330;SDS011;8783;52.448;4.638;2023-10-09T13:21:50;5.05;;;2.88;;
17330;SDS011;8783;52.448;4.638;2023-10-09T13:24:16;5.93;;;2.90;;
17330;SDS011;8783;52.448;4.638;2023-10-09T13:26:42;5.50;;;3.33;;
17330;SDS011;8783;52.448;4.638;2023-10-09T13:29:11;5.03;;;3.05;;
17330;SDS011;8783;52.448;4.638;2023-10-09T13:31:38;5.22;;;2.85;;
17330;SDS011;8783;52.448;4.638;2023-10-09T13:34:05;5.70;;;3.35;;
17330;SDS011;8783;52.448;4.638;2023-10-09T13:36:31;5.53;;;3.08;;
17330;SDS011;8783;52.448;4.638;2023-10-09T13:39:03;5.10;;;2.97;;
17330;SDS011;8783;52.448;4.638;2023-10-09T13:41:45;5.82;;;3.25;;
17330;SDS011;8783;52.448;4.638;2023-10-09T13:44:11;6.68;;;3.55;;
17330;SDS011;8783;52.448;4.638;2023-10-09T13:46:37;5.68;;;3.10;;
17330;SDS011;8783;52.448;4.638;2023-10-09T13:49:09;5.20;;;3.15;;
17330;SDS011;8783;52.448;4.638;2023-10-09T13:51:39;4.40;;;3.13;;
17330;SDS011;8783;52.448;4.638;2023-10-09T13:54:10;4.80;;;2.90;;
17330;SDS011;8783;52.448;4.638;2023-10-09T13:56:43;4.47;;;2.97;;
17330;SDS011;8783;52.448;4.638;2023-10-09T13:59:08;4.05;;;2.50;;
17330;SDS011;8783;52.448;4.638;2023-10-09T14:01:36;6.30;;;3.35;;
17330;SDS011;8783;52.448;4.638;2023-10-09T14:04:04;4.50;;;3.20;;
17330;SDS011;8783;52.448;4.638;2023-10-09T14:06:31;5.70;;;3.20;;
17330;SDS011;8783;52.448;4.638;2023-10-09T14:08:57;4.68;;;3.00;;
17330;SDS011;8783;52.448;4.638;2023-10-09T14:11:23;4.22;;;3.30;;
17330;SDS011;8783;52.448;4.638;2023-10-09T14:13:50;5.15;;;3.30;;
17330;SDS011;8783;52.448;4.638;2023-10-09T14:16:16;5.50;;;2.90;;
17330;SDS011;8783;52.448;4.638;2023-10-09T14:18:55;5.65;;;3.13;;
17330;SDS011;8783;52.448;4.638;2023-10-09T14:21:29;5.80;;;3.05;;
17330;SDS011;8783;52.448;4.638;2023-10-09T14:23:58;4.88;;;2.92;;
17330;SDS011;8783;52.448;4.638;2023-10-09T14:26:24;6.22;;;3.22;;
17330;SDS011;8783;52.448;4.638;2023-10-09T14:28:52;5.03;;;3.30;;
17330;SDS011;8783;52.448;4.638;2023-10-09T14:31:18;6.18;;;3.00;;
17330;SDS011;8783;52.448;4.638;2023-10-09T14:33:51;4.55;;;2.85;;
17330;SDS011;8783;52.448;4.638;2023-10-09T14:36:21;6.10;;;3.30;;
17330;SDS011;8783;52.448;4.638;2023-10-09T14:38:51;5.07;;;3.22;;
17330;SDS011;8783;52.448;4.638;2023-10-09T14:41:21;5.72;;;3.17;;
17330;SDS011;8783;52.448;4.638;2023-10-09T14:43:51;6.53;;;3.30;;
17330;SDS011;8783;52.448;4.638;2023-10-09T14:46:18;5.30;;;3.20;;
17330;SDS011;8783;52.448;4.638;2023-10-09T14:48:50;6.20;;;3.35;;
17330;SDS011;8783;52.448;4.638;2023-10-09T14:51:19;8.88;;;3.80;;
17330;SDS011;8783;52.448;4.638;2023-10-09T14:53:52;4.70;;;3.10;;
17330;SDS011;8783;52.448;4.638;2023-10-09T14:56:18;5.03;;;3.15;;
17330;SDS011;8783;52.448;4.638;2023-10-09T14:58:53;6.18;;;3.40;;
17330;SDS011;8783;52.448;4.638;2023-10-09T15:01:23;4.75;;;2.88;;
17330;SDS011;8783;52.448;4.638;2023-10-09T15:03:58;6.43;;;3.40;;
17330;SDS011;8783;52.448;4.638;2023-10-09T15:06:29;5.57;;;3.10;;
17330;SDS011;8783;52.448;4.638;2023-10-09T15:08:58;4.47;;;3.05;;
17330;SDS011;8783;52.448;4.638;2023-10-09T15:11:33;5.60;;;3.40;;
17330;SDS011;8783;52.448;4.638;2023-10-09T15:13:59;4.18;;;2.92;;
17330;SDS011;8783;52.448;4.638;2023-10-09T15:16:25;4.50;;;2.90;;
17330;SDS011;8783;52.448;4.638;2023-10-09T15:18:55;5.22;;;2.90;;
17330;SDS011;8783;52.448;4.638;2023-10-09T15:21:27;4.40;;;2.72;;
17330;SDS011;8783;52.448;4.638;2023-10-09T15:23:57;5.53;;;2.97;;
17330;SDS011;8783;52.448;4.638;2023-10-09T15:26:24;5.50;;;3.15;;
17330;SDS011;8783;52.448;4.638;2023-10-09T15:28:53;5.55;;;2.97;;
17330;SDS011;8783;52.448;4.638;2023-10-09T15:31:19;7.50;;;3.15;;
17330;SDS011;8783;52.448;4.638;2023-10-09T15:33:46;4.90;;;2.95;;
17330;SDS011;8783;52.448;4.638;2023-10-09T15:36:16;5.45;;;3.00;;
17330;SDS011;8783;52.448;4.638;2023-10-09T15:38:53;4.88;;;2.72;;
17330;SDS011;8783;52.448;4.638;2023-10-09T15:41:24;5.45;;;2.72;;
17330;SDS011;8783;52.448;4.638;2023-10-09T15:43:55;4.40;;;2.90;;
17330;SDS011;8783;52.448;4.638;2023-10-09T15:46:22;3.97;;;2.70;;
17330;SDS011;8783;52.448;4.638;2023-10-09T15:48:48;5.05;;;2.55;;
17330;SDS011;8783;52.448;4.638;2023-10-09T15:51:16;6.82;;;3.10;;
17330;SDS011;8783;52.448;4.638;2023-10-09T15:53:42;6.07;;;2.83;;
17330;SDS011;8783;52.448;4.638;2023-10-09T15:56:09;3.72;;;2.55;;
17330;SDS011;8783;52.448;4.638;2023-10-09T15:58:37;4.43;;;3.17;;
17330;SDS011;8783;52.448;4.638;2023-10-09T16:01:07;4.32;;;2.70;;
17330;SDS011;8783;52.448;4.638;2023-10-09T16:03:40;4.60;;;2.90;;
17330;SDS011;8783;52.448;4.638;2023-10-09T16:06:07;5.57;;;2.80;;